Terminal Aerodrome Forecast
Issued by NWS

Home | Current Version | Previous Version | Text Only | Print | Product List | Glossary On
Versions: 1 2 3 4 5 6 7 8 9 10 11 12 13 14 15 16
553
FTUS44 KMAF 240521
TAFINK
TAF
KINK 240521Z 2406/2506 14010KT P6SM SKC
     FM241700 24014G20KT P6SM FEW250
     FM250100 14007KT P6SM SCT250=

USA.gov is the U.S. government's official web portal to all federal, state and local government web resources and services.